createdAt,value
2022-09-23T00:01:14.232Z,99.90
2022-09-23T00:03:43.156Z,99.90
2022-09-23T00:06:15.943Z,99.90
2022-09-23T00:08:45.394Z,99.90
2022-09-23T00:11:21.526Z,99.90
2022-09-23T00:13:50.353Z,99.90
2022-09-23T00:16:21.277Z,99.90
2022-09-23T00:18:50.243Z,99.90
2022-09-23T00:21:20.603Z,99.90
2022-09-23T00:23:47.696Z,99.90
2022-09-23T00:26:17.208Z,99.90
2022-09-23T00:28:44.714Z,99.90
2022-09-23T00:31:20.679Z,99.90
2022-09-23T00:33:47.680Z,99.90
2022-09-23T00:36:15.969Z,99.90
2022-09-23T00:38:45.957Z,99.90
2022-09-23T00:41:15.154Z,99.90
2022-09-23T00:43:47.022Z,99.90
2022-09-23T00:46:32.584Z,99.90
2022-09-23T00:49:06.844Z,99.90
2022-09-23T00:51:38.606Z,99.90
2022-09-23T00:54:08.368Z,99.90
2022-09-23T00:56:36.540Z,99.90
2022-09-23T00:59:03.621Z,99.90
2022-09-23T01:01:32.949Z,99.90
2022-09-23T01:04:01.750Z,99.90
2022-09-23T01:06:29.366Z,99.90
2022-09-23T01:08:56.280Z,99.90
2022-09-23T01:11:46.709Z,99.90
2022-09-23T01:14:38.052Z,99.90
2022-09-23T01:17:30.762Z,99.90
2022-09-23T01:20:24.827Z,99.90
2022-09-23T01:23:17.608Z,99.90
2022-09-23T01:26:03.934Z,99.90
2022-09-23T01:28:36.747Z,99.90
2022-09-23T01:31:06.559Z,99.90
2022-09-23T01:33:51.823Z,99.90
2022-09-23T01:36:33.569Z,99.90
2022-09-23T01:39:22.027Z,99.90
2022-09-23T01:42:17.685Z,99.90
2022-09-23T01:44:56.220Z,99.90
2022-09-23T01:47:41.841Z,99.90
2022-09-23T01:50:40.435Z,99.90
2022-09-23T01:53:20.373Z,99.90
2022-09-23T01:55:53.017Z,99.90
2022-09-23T01:58:41.869Z,99.90
2022-09-23T02:01:15.094Z,99.90
2022-09-23T02:03:55.795Z,99.90
2022-09-23T02:06:28.713Z,99.90
2022-09-23T02:09:01.787Z,99.90
2022-09-23T02:11:32.475Z,99.90
2022-09-23T02:14:21.605Z,99.90
2022-09-23T02:16:56.103Z,99.90
2022-09-23T02:19:27.061Z,99.90
2022-09-23T02:22:00.661Z,99.90
2022-09-23T02:24:34.585Z,99.90
2022-09-23T02:27:07.209Z,99.90
2022-09-23T02:29:49.312Z,99.90
2022-09-23T02:32:31.304Z,99.90
2022-09-23T02:35:17.980Z,99.90
2022-09-23T02:38:09.265Z,99.90
2022-09-23T02:41:04.633Z,99.90
2022-09-23T02:43:50.295Z,99.90
2022-09-23T02:46:17.629Z,99.90
2022-09-23T02:48:53.279Z,99.90
2022-09-23T02:51:20.028Z,99.90
2022-09-23T02:53:49.170Z,99.90
2022-09-23T02:56:20.932Z,99.90
2022-09-23T02:58:49.630Z,99.90
2022-09-23T03:01:47.632Z,99.90
2022-09-23T03:04:39.195Z,99.90
2022-09-23T03:07:08.638Z,99.90
2022-09-23T03:09:40.168Z,99.90
2022-09-23T03:12:12.140Z,99.90
2022-09-23T03:15:00.395Z,99.90
2022-09-23T03:17:37.950Z,99.90
2022-09-23T03:20:16.363Z,99.90
2022-09-23T03:22:49.571Z,99.90
2022-09-23T03:25:19.078Z,99.90
2022-09-23T03:27:45.922Z,99.90
2022-09-23T03:30:18.113Z,99.90
2022-09-23T03:32:47.669Z,99.90
2022-09-23T03:35:14.926Z,99.90
2022-09-23T03:38:09.059Z,99.90
2022-09-23T03:40:43.527Z,99.90
2022-09-23T03:43:14.160Z,99.90
2022-09-23T03:45:42.588Z,99.90
2022-09-23T03:48:13.735Z,99.90
2022-09-23T03:50:42.891Z,99.90
2022-09-23T03:53:09.602Z,99.90
2022-09-23T03:55:39.345Z,99.90
2022-09-23T03:58:07.993Z,99.90
2022-09-23T04:00:36.149Z,99.90
2022-09-23T04:03:02.989Z,99.90
2022-09-23T04:05:30.363Z,99.90
2022-09-23T04:07:59.429Z,99.90
2022-09-23T04:10:26.072Z,99.90
2022-09-23T04:12:55.074Z,99.90
2022-09-23T04:15:21.862Z,99.90
2022-09-23T04:17:50.684Z,99.90
2022-09-23T04:20:20.600Z,99.90
2022-09-23T04:22:47.284Z,99.90
2022-09-23T04:25:16.499Z,99.90
2022-09-23T04:27:45.372Z,99.90
2022-09-23T04:30:18.656Z,99.90
2022-09-23T04:32:45.329Z,99.90
2022-09-23T04:35:14.115Z,99.90
2022-09-23T04:37:40.773Z,99.90
2022-09-23T04:40:08.281Z,99.90
2022-09-23T04:42:37.246Z,99.90
2022-09-23T04:45:05.527Z,99.90
2022-09-23T04:47:32.665Z,99.90
2022-09-23T04:50:00.090Z,99.90
2022-09-23T04:52:29.304Z,99.90
2022-09-23T04:54:55.989Z,99.90
2022-09-23T04:57:24.285Z,99.90
2022-09-23T04:59:51.024Z,99.90
2022-09-23T05:02:17.727Z,99.90
2022-09-23T05:04:44.546Z,99.90
2022-09-23T05:07:11.662Z,99.90
2022-09-23T05:09:41.156Z,99.90
2022-09-23T05:12:07.927Z,99.90
2022-09-23T05:14:38.852Z,99.90
2022-09-23T05:17:06.267Z,99.90
2022-09-23T05:19:35.435Z,99.90
2022-09-23T05:22:02.166Z,99.90
2022-09-23T05:24:29.799Z,99.90
2022-09-23T05:26:56.458Z,99.90
2022-09-23T05:29:25.342Z,99.90
2022-09-23T05:31:52.184Z,99.90
2022-09-23T05:34:21.337Z,99.90
2022-09-23T05:36:48.012Z,99.90
2022-09-23T05:39:17.083Z,99.90
2022-09-23T05:41:43.821Z,99.90
2022-09-23T05:44:10.479Z,99.90
2022-09-23T05:46:37.274Z,99.90
2022-09-23T05:49:05.388Z,99.90
2022-09-23T05:51:33.505Z,99.90
2022-09-23T05:54:02.813Z,99.90
2022-09-23T05:56:33.191Z,99.90
2022-09-23T05:59:01.813Z,99.90
2022-09-23T06:01:34.054Z,99.90
2022-09-23T06:04:03.282Z,99.90
2022-09-23T06:06:48.529Z,99.90
2022-09-23T06:09:17.439Z,99.90
2022-09-23T06:11:44.158Z,99.90
2022-09-23T06:14:14.833Z,99.90
2022-09-23T06:16:44.878Z,99.90
2022-09-23T06:19:11.745Z,99.90
2022-09-23T06:21:40.475Z,99.90
2022-09-23T06:24:08.364Z,99.90
2022-09-23T06:26:37.688Z,99.90
2022-09-23T06:29:10.083Z,99.90
2022-09-23T06:31:36.916Z,99.90
2022-09-23T06:34:11.660Z,99.90
2022-09-23T06:36:44.565Z,99.90
2022-09-23T06:39:18.178Z,99.90
2022-09-23T06:41:47.472Z,99.90
2022-09-23T06:44:14.884Z,99.90
2022-09-23T06:46:41.973Z,99.90
2022-09-23T06:49:12.102Z,99.90
2022-09-23T06:51:41.387Z,99.90
2022-09-23T06:54:08.359Z,99.90
2022-09-23T06:56:39.499Z,99.90
2022-09-23T06:59:12.178Z,99.90
2022-09-23T07:01:39.294Z,99.90
2022-09-23T07:04:07.599Z,99.90
2022-09-23T07:06:37.272Z,99.90
2022-09-23T07:09:05.721Z,99.90
2022-09-23T07:11:32.467Z,99.90
2022-09-23T07:14:01.769Z,99.90
2022-09-23T07:16:28.558Z,99.90
2022-09-23T07:18:57.496Z,99.90
2022-09-23T07:21:27.887Z,99.90
2022-09-23T07:23:55.190Z,99.90
2022-09-23T07:26:22.756Z,99.90
2022-09-23T07:28:55.355Z,99.90
2022-09-23T07:31:35.690Z,99.90
2022-09-23T07:34:05.665Z,99.90
2022-09-23T07:36:37.258Z,99.90
2022-09-23T07:39:11.108Z,99.90
2022-09-23T07:41:38.060Z,99.90
2022-09-23T07:44:08.748Z,99.90
2022-09-23T07:46:36.223Z,99.90
2022-09-23T07:49:03.653Z,99.90
2022-09-23T07:51:36.109Z,99.90
2022-09-23T07:54:09.932Z,99.90
2022-09-23T07:56:37.925Z,99.90
2022-09-23T07:59:08.639Z,99.90
2022-09-23T08:01:41.805Z,99.90
2022-09-23T08:04:20.026Z,99.90
2022-09-23T08:06:49.740Z,99.90
2022-09-23T08:09:18.910Z,99.90
2022-09-23T08:11:45.642Z,99.90
2022-09-23T08:14:14.513Z,99.90
2022-09-23T08:16:45.261Z,99.90
2022-09-23T08:19:13.030Z,99.90
2022-09-23T08:21:41.700Z,99.90
2022-09-23T08:24:19.787Z,99.90
2022-09-23T08:26:47.859Z,99.90
2022-09-23T08:29:19.073Z,99.90
2022-09-23T08:31:46.558Z,99.90
2022-09-23T08:34:13.825Z,99.90
2022-09-23T08:36:40.534Z,99.90
2022-09-23T08:39:07.489Z,99.90
2022-09-23T08:41:47.649Z,99.90
2022-09-23T08:44:26.612Z,99.90
2022-09-23T08:47:01.653Z,99.90
2022-09-23T08:49:39.766Z,99.90
2022-09-23T08:52:14.312Z,99.90
2022-09-23T08:54:41.839Z,99.90
2022-09-23T08:57:33.163Z,99.90
2022-09-23T09:00:02.729Z,99.90
2022-09-23T09:02:33.722Z,99.90
2022-09-23T09:05:06.848Z,99.90
2022-09-23T09:07:43.839Z,99.90
2022-09-23T09:10:16.683Z,99.90
2022-09-23T09:12:46.071Z,99.90
2022-09-23T09:15:25.230Z,99.90
2022-09-23T09:18:18.012Z,99.90
2022-09-23T09:20:59.794Z,99.90
2022-09-23T09:23:35.377Z,99.90
2022-09-23T09:26:03.526Z,99.90
2022-09-23T09:28:40.173Z,99.90
2022-09-23T09:31:38.105Z,99.90
2022-09-23T09:34:11.950Z,99.80
2022-09-23T09:36:48.946Z,99.20
2022-09-23T09:39:21.855Z,99.10
2022-09-23T09:41:58.473Z,98.20
2022-09-23T09:44:40.106Z,98.20
2022-09-23T09:47:12.980Z,98.00
2022-09-23T09:49:49.991Z,97.30
2022-09-23T09:52:31.749Z,96.80
2022-09-23T09:55:13.765Z,96.30
2022-09-23T09:57:45.231Z,96.10
2022-09-23T10:00:27.659Z,95.40
2022-09-23T10:03:20.555Z,95.50
2022-09-23T10:05:52.156Z,95.30
2022-09-23T10:08:19.314Z,95.10
2022-09-23T10:11:15.088Z,94.70
2022-09-23T10:14:02.801Z,94.60
2022-09-23T10:16:34.397Z,94.00
2022-09-23T10:19:03.247Z,93.80
2022-09-23T10:21:37.561Z,93.80
2022-09-23T10:24:06.591Z,93.50
2022-09-23T10:26:37.324Z,93.40
2022-09-23T10:29:19.886Z,93.40
2022-09-23T10:31:49.155Z,93.50
2022-09-23T10:34:28.432Z,92.70
2022-09-23T10:37:14.840Z,92.30
2022-09-23T10:40:00.464Z,92.20
2022-09-23T10:43:04.217Z,91.90
2022-09-23T10:45:55.793Z,92.40
2022-09-23T10:48:49.630Z,92.20
2022-09-23T10:51:34.508Z,91.50
2022-09-23T10:54:19.524Z,92.10
2022-09-23T10:56:47.893Z,92.40
2022-09-23T10:59:35.657Z,91.90
2022-09-23T11:02:28.681Z,91.80
2022-09-23T11:05:03.422Z,91.50
2022-09-23T11:07:44.336Z,91.50
2022-09-23T11:10:45.017Z,91.60
2022-09-23T11:13:29.936Z,92.20
2022-09-23T11:15:59.064Z,91.30
2022-09-23T11:18:52.463Z,91.10
2022-09-23T11:22:07.149Z,92.00
2022-09-23T11:24:50.237Z,91.60
2022-09-23T11:27:44.492Z,90.70
2022-09-23T11:30:22.869Z,90.00
2022-09-23T11:32:51.187Z,90.20
2022-09-23T11:35:21.219Z,90.00
2022-09-23T11:38:12.965Z,90.00
2022-09-23T11:40:45.561Z,90.20
2022-09-23T11:43:23.919Z,89.80
2022-09-23T11:46:18.268Z,90.00
2022-09-23T11:49:20.065Z,89.50
2022-09-23T11:51:55.582Z,89.30
2022-09-23T11:54:39.098Z,88.60
2022-09-23T11:57:12.302Z,88.80
2022-09-23T11:59:52.000Z,88.90
2022-09-23T12:02:45.528Z,89.10
2022-09-23T12:05:22.212Z,88.50
2022-09-23T12:08:02.809Z,88.50
2022-09-23T12:10:52.902Z,88.40
2022-09-23T12:13:45.351Z,87.20
2022-09-23T12:16:31.075Z,86.30
2022-09-23T12:19:30.134Z,87.20
2022-09-23T12:22:21.379Z,88.20
2022-09-23T12:24:58.414Z,87.10
2022-09-23T12:27:36.927Z,87.70
2022-09-23T12:30:20.544Z,87.80
2022-09-23T12:38:48.058Z,86.90
2022-09-23T12:41:26.549Z,85.70
2022-09-23T12:43:59.937Z,85.20
2022-09-23T12:46:29.585Z,83.90
2022-09-23T12:48:57.929Z,83.30
2022-09-23T12:51:29.042Z,81.80
2022-09-23T12:54:21.116Z,81.40
2022-09-23T12:56:55.889Z,81.60
2022-09-23T12:59:29.291Z,81.90
2022-09-23T13:01:57.354Z,81.50
2022-09-23T13:05:38.095Z,81.30
2022-09-23T13:08:20.585Z,81.10
2022-09-23T13:10:59.889Z,81.50
2022-09-23T13:13:46.810Z,81.70
2022-09-23T13:16:31.625Z,81.60
2022-09-23T13:18:59.549Z,82.00
2022-09-23T13:21:44.910Z,82.10
2022-09-23T13:24:20.458Z,81.40
2022-09-23T13:26:57.729Z,81.80
2022-09-23T13:29:28.504Z,81.40
2022-09-23T13:31:57.797Z,82.90
2022-09-23T13:34:34.556Z,84.10
2022-09-23T13:37:24.621Z,83.50
2022-09-23T13:40:08.831Z,82.90
2022-09-23T13:42:41.859Z,83.30
2022-09-23T13:45:15.605Z,84.10
2022-09-23T13:47:44.169Z,81.90
2022-09-23T13:50:24.323Z,82.90
2022-09-23T13:52:54.950Z,82.50
2022-09-23T13:55:38.782Z,81.30
2022-09-23T13:58:18.539Z,82.40
2022-09-23T14:00:45.448Z,83.20
2022-09-23T14:03:36.828Z,81.90
2022-09-23T14:06:15.429Z,82.00
2022-09-23T14:08:46.111Z,81.30
2022-09-23T14:11:22.728Z,81.70
2022-09-23T14:13:55.060Z,81.00
2022-09-23T14:16:28.073Z,80.50
2022-09-23T14:18:59.941Z,80.70
2022-09-23T14:21:37.767Z,80.30
2022-09-23T14:24:18.060Z,80.00
2022-09-23T14:26:49.628Z,79.70
2022-09-23T14:29:26.614Z,79.80
2022-09-23T14:32:04.796Z,80.50
2022-09-23T14:34:52.775Z,81.80
2022-09-23T14:37:45.456Z,81.60
2022-09-23T14:40:18.006Z,81.40
2022-09-23T14:42:48.647Z,80.70
2022-09-23T14:45:25.204Z,79.60
2022-09-23T14:47:57.893Z,79.20
2022-09-23T14:50:47.522Z,79.80
2022-09-23T14:53:18.467Z,79.20
2022-09-23T14:55:57.241Z,79.00
2022-09-23T14:58:30.870Z,78.40
2022-09-23T15:01:00.303Z,77.40
2022-09-23T15:03:28.565Z,76.70
2022-09-23T15:06:08.635Z,76.30
2022-09-23T15:08:38.645Z,75.90
2022-09-23T15:11:08.200Z,75.70
2022-09-23T15:13:40.418Z,74.60
2022-09-23T15:16:11.798Z,74.10
2022-09-23T15:18:43.033Z,73.70
2022-09-23T15:21:19.059Z,74.00
2022-09-23T15:23:50.972Z,73.30
2022-09-23T15:26:20.518Z,73.90
2022-09-23T15:28:55.818Z,73.90
2022-09-23T15:31:25.512Z,73.90
2022-09-23T15:33:55.974Z,73.20
2022-09-23T15:36:29.079Z,73.40
2022-09-23T15:39:01.148Z,74.00
2022-09-23T15:41:30.564Z,76.30
2022-09-23T15:43:58.192Z,76.40
2022-09-23T15:46:30.338Z,77.30
2022-09-23T15:49:01.429Z,78.20
2022-09-23T15:51:28.350Z,79.30
2022-09-23T15:54:00.025Z,79.70
2022-09-23T15:56:29.174Z,80.90
2022-09-23T15:58:58.117Z,82.40
2022-09-23T16:01:29.537Z,84.30
2022-09-23T16:04:03.868Z,85.10
2022-09-23T16:06:31.756Z,85.50
2022-09-23T16:08:58.535Z,86.20
2022-09-23T16:11:29.758Z,86.70
2022-09-23T16:14:00.429Z,88.70
2022-09-23T16:16:31.916Z,90.40
2022-09-23T16:19:01.162Z,90.90
2022-09-23T16:21:28.850Z,91.80
2022-09-23T16:23:57.296Z,92.30
2022-09-23T16:26:27.471Z,92.80
2022-09-23T16:28:56.083Z,93.70
2022-09-23T16:31:25.483Z,94.10
2022-09-23T16:33:53.113Z,95.20
2022-09-23T16:36:31.034Z,95.80
2022-09-23T16:39:02.685Z,97.20
2022-09-23T16:41:31.530Z,97.70
2022-09-23T16:44:00.730Z,98.20
2022-09-23T16:46:31.287Z,98.80
2022-09-23T16:48:58.942Z,99.90
2022-09-23T16:51:31.641Z,99.90
2022-09-23T16:53:59.997Z,99.90
2022-09-23T16:56:29.245Z,99.90
2022-09-23T16:58:56.614Z,99.90
2022-09-23T17:01:47.526Z,99.90
2022-09-23T17:04:18.935Z,99.90
2022-09-23T17:06:50.621Z,99.90
2022-09-23T17:09:21.638Z,99.90
2022-09-23T17:12:07.228Z,99.90
2022-09-23T17:14:36.174Z,99.90
2022-09-23T17:17:02.912Z,99.90
2022-09-23T17:19:33.780Z,99.90
2022-09-23T17:22:00.527Z,99.90
2022-09-23T17:24:27.219Z,99.90
2022-09-23T17:26:53.915Z,99.90
2022-09-23T17:29:22.776Z,99.90
2022-09-23T17:31:52.432Z,99.90
2022-09-23T17:34:19.378Z,99.90
2022-09-23T17:36:50.810Z,99.90
2022-09-23T17:39:22.618Z,99.90
2022-09-23T17:41:56.019Z,99.90
2022-09-23T17:44:23.035Z,99.90
2022-09-23T17:46:51.082Z,99.90
2022-09-23T17:49:21.904Z,99.90
2022-09-23T17:51:50.763Z,99.90
2022-09-23T17:54:17.526Z,99.90
2022-09-23T17:56:44.255Z,99.90
2022-09-23T17:59:14.654Z,99.90
2022-09-23T18:01:43.535Z,99.90
2022-09-23T18:04:10.226Z,99.90
2022-09-23T18:06:37.920Z,99.90
2022-09-23T18:09:07.177Z,99.90
2022-09-23T18:11:36.316Z,99.90
2022-09-23T18:14:10.257Z,99.90
2022-09-23T18:16:39.795Z,99.90
2022-09-23T18:19:10.115Z,99.90
2022-09-23T18:21:42.813Z,99.90
2022-09-23T18:24:31.423Z,99.90
2022-09-23T18:26:59.574Z,99.90
2022-09-23T18:29:26.637Z,99.90
2022-09-23T18:31:53.449Z,99.90
2022-09-23T18:34:22.513Z,99.90
2022-09-23T18:36:51.678Z,99.90
2022-09-23T18:39:18.408Z,99.90
2022-09-23T18:41:45.183Z,99.90
2022-09-23T18:44:15.791Z,99.90
2022-09-23T18:46:51.202Z,99.90
2022-09-23T18:49:36.453Z,99.90
2022-09-23T18:52:03.238Z,99.90
2022-09-23T18:54:30.344Z,99.90
2022-09-23T18:56:59.573Z,99.90
2022-09-23T18:59:33.377Z,99.90
2022-09-23T19:02:00.409Z,99.90
2022-09-23T19:04:30.037Z,99.90
2022-09-23T19:06:57.806Z,99.90
2022-09-23T19:09:25.146Z,99.90
2022-09-23T19:11:54.730Z,99.90
2022-09-23T19:14:23.942Z,99.90
2022-09-23T19:16:50.764Z,99.90
2022-09-23T19:19:17.564Z,99.90
2022-09-23T19:21:44.236Z,99.90
2022-09-23T19:24:15.552Z,99.90
2022-09-23T19:26:45.018Z,99.90
2022-09-23T19:29:21.787Z,99.90
2022-09-23T19:31:49.982Z,99.90
2022-09-23T19:34:24.653Z,99.90
2022-09-23T19:36:52.798Z,99.90
2022-09-23T19:39:24.585Z,99.90
2022-09-23T19:41:55.635Z,99.90
2022-09-23T19:44:24.225Z,99.90
2022-09-23T19:46:55.911Z,99.90
2022-09-23T19:49:30.057Z,99.90
2022-09-23T19:51:56.911Z,99.90
2022-09-23T19:54:26.500Z,99.90
2022-09-23T19:56:53.183Z,99.90
2022-09-23T19:59:19.982Z,99.90
2022-09-23T20:01:48.171Z,99.90
2022-09-23T20:04:16.114Z,99.90
2022-09-23T20:06:43.306Z,99.90
2022-09-23T20:09:12.368Z,99.90
2022-09-23T20:11:44.146Z,99.90
2022-09-23T20:14:11.839Z,99.90
2022-09-23T20:16:38.721Z,99.90
2022-09-23T20:19:07.966Z,99.90
2022-09-23T20:21:35.401Z,99.90
2022-09-23T20:24:05.572Z,99.90
2022-09-23T20:26:51.083Z,99.90
2022-09-23T20:29:17.858Z,99.90
2022-09-23T20:31:44.702Z,99.90
2022-09-23T20:34:13.733Z,99.90
2022-09-23T20:36:41.632Z,99.90
2022-09-23T20:39:09.822Z,99.90
2022-09-23T20:41:39.675Z,99.90
2022-09-23T20:44:14.078Z,99.90
2022-09-23T20:46:47.837Z,99.90
2022-09-23T20:49:16.572Z,99.90
2022-09-23T20:51:45.671Z,99.90
2022-09-23T20:54:12.396Z,99.90
2022-09-23T20:56:41.560Z,99.90
2022-09-23T20:59:09.738Z,99.90
2022-09-23T21:01:36.959Z,99.90
2022-09-23T21:04:05.742Z,99.90
2022-09-23T21:06:37.752Z,99.90
2022-09-23T21:09:07.653Z,99.90
2022-09-23T21:11:34.347Z,99.90
2022-09-23T21:14:06.794Z,99.90
2022-09-23T21:16:33.679Z,99.90
2022-09-23T21:19:03.112Z,99.90
2022-09-23T21:21:30.537Z,99.90
2022-09-23T21:24:11.778Z,99.90
2022-09-23T21:26:47.319Z,99.90
2022-09-23T21:32:07.049Z,99.90
2022-09-23T21:34:54.916Z,99.90
2022-09-23T21:40:35.409Z,99.90
2022-09-23T21:43:11.222Z,99.90
2022-09-23T21:45:42.808Z,99.90
2022-09-23T21:48:19.032Z,99.90
2022-09-23T21:50:54.806Z,99.90
2022-09-23T21:53:22.322Z,99.90
2022-09-23T21:55:50.591Z,99.90
2022-09-23T21:58:19.869Z,99.90
2022-09-23T22:01:07.740Z,99.90
2022-09-23T22:03:34.550Z,99.90
2022-09-23T22:06:31.516Z,99.90
2022-09-23T22:09:00.541Z,99.90
2022-09-23T22:11:56.295Z,99.90
2022-09-23T22:14:31.904Z,99.90
2022-09-23T22:17:00.860Z,99.90
2022-09-23T22:19:34.885Z,99.90
2022-09-23T22:22:06.495Z,99.90
2022-09-23T22:24:35.697Z,99.90
2022-09-23T22:27:02.350Z,99.90
2022-09-23T22:29:47.658Z,99.90
2022-09-23T22:32:35.073Z,99.90
2022-09-23T22:35:01.852Z,99.90
2022-09-23T22:37:34.171Z,99.90
2022-09-23T22:40:06.596Z,99.90
2022-09-23T22:42:33.456Z,99.90
2022-09-23T22:45:00.495Z,99.90
2022-09-23T22:47:27.252Z,99.90
2022-09-23T22:49:55.512Z,99.90
2022-09-23T22:52:24.598Z,99.90
2022-09-23T22:54:52.018Z,99.90
2022-09-23T22:57:19.525Z,99.90
2022-09-23T22:59:47.888Z,99.90
2022-09-23T23:02:18.440Z,99.90
2022-09-23T23:04:48.814Z,99.90
2022-09-23T23:07:22.052Z,99.90
2022-09-23T23:09:52.460Z,99.90
2022-09-23T23:12:20.717Z,99.90
2022-09-23T23:14:50.343Z,99.90
2022-09-23T23:17:19.606Z,99.90
2022-09-23T23:19:47.394Z,99.90
2022-09-23T23:22:14.087Z,99.90
2022-09-23T23:24:40.738Z,99.90
2022-09-23T23:27:07.434Z,99.90
2022-09-23T23:29:34.145Z,99.90
2022-09-23T23:32:00.935Z,99.90
2022-09-23T23:34:28.079Z,99.90
2022-09-23T23:36:55.304Z,99.90
2022-09-23T23:39:23.767Z,99.90
2022-09-23T23:41:57.763Z,99.90
2022-09-23T23:44:26.069Z,99.90
2022-09-23T23:46:53.885Z,99.90
2022-09-23T23:49:20.808Z,99.90
2022-09-23T23:51:47.869Z,99.90
2022-09-23T23:54:15.339Z,99.90
2022-09-23T23:56:42.212Z,99.90
2022-09-23T23:59:08.880Z,99.90
